<?xml version="1.0" encoding="UTF-8" standalone="no" ?>
<gpx xmlns="http://www.topografix.com/GPX/1/1" xmlns:xsi="http://www.w3.org/2001/XMLSchema-instance" xsi:schemaLocation="http://www.topografix.com/GPX/1/1 http://www.topografix.com/GPX/1/1/gpx.xsd" version="1.1" creator="VisuGPX - https://www.visugpx.com">
  <metadata>
    <name>Beau dimanche à Cheval Virignin 2014</name>
    <desc><![CDATA[Beau dimanche à Cheval Virignin 2014]]></desc>
  </metadata>
  <trk>
    <name><![CDATA[Parcours 2014-05-04 09:56]]></name>
    <trkseg>
      <trkpt lat="45.73001" lon="5.70432">
        <ele>219.59997558594</ele>
        <time>2014-05-04T07:59:30Z</time>
      </trkpt>
      <trkpt lat="45.7297" lon="5.70425">
        <ele>224.90002441406</ele>
        <time>2014-05-04T08:00:13Z</time>
      </trkpt>
      <trkpt lat="45.72942" lon="5.70427">
        <ele>220.79998779297</ele>
        <time>2014-05-04T08:00:34Z</time>
      </trkpt>
      <trkpt lat="45.72904" lon="5.70439">
        <ele>220.20001220703</ele>
        <time>2014-05-04T08:00:56Z</time>
      </trkpt>
      <trkpt lat="45.72883" lon="5.7043">
        <ele>215.40002441406</ele>
        <time>2014-05-04T08:01:18Z</time>
      </trkpt>
      <trkpt lat="45.7288" lon="5.70445">
        <ele>220.90002441406</ele>
        <time>2014-05-04T08:01:39Z</time>
      </trkpt>
      <trkpt lat="45.72879" lon="5.70468">
        <ele>247.5</ele>
        <time>2014-05-04T08:01:59Z</time>
      </trkpt>
      <trkpt lat="45.72896" lon="5.7047">
        <ele>252.79998779297</ele>
        <time>2014-05-04T08:02:20Z</time>
      </trkpt>
      <trkpt lat="45.72888" lon="5.70491">
        <ele>262.59997558594</ele>
        <time>2014-05-04T08:03:07Z</time>
      </trkpt>
      <trkpt lat="45.72873" lon="5.70536">
        <ele>287.40002441406</ele>
        <time>2014-05-04T08:03:31Z</time>
      </trkpt>
      <trkpt lat="45.72871" lon="5.70574">
        <ele>309.20001220703</ele>
        <time>2014-05-04T08:03:58Z</time>
      </trkpt>
      <trkpt lat="45.72874" lon="5.70633">
        <ele>327.70001220703</ele>
        <time>2014-05-04T08:04:28Z</time>
      </trkpt>
      <trkpt lat="45.72873" lon="5.70701">
        <ele>335.40002441406</ele>
        <time>2014-05-04T08:05:01Z</time>
      </trkpt>
      <trkpt lat="45.72832" lon="5.70737">
        <ele>318.79998779297</ele>
        <time>2014-05-04T08:05:31Z</time>
      </trkpt>
      <trkpt lat="45.72793" lon="5.70757">
        <ele>321</ele>
        <time>2014-05-04T08:06:01Z</time>
      </trkpt>
      <trkpt lat="45.7275" lon="5.70772">
        <ele>322.20001220703</ele>
        <time>2014-05-04T08:06:30Z</time>
      </trkpt>
      <trkpt lat="45.72738" lon="5.70803">
        <ele>330.79998779297</ele>
        <time>2014-05-04T08:07:02Z</time>
      </trkpt>
      <trkpt lat="45.7273" lon="5.70836">
        <ele>332.59997558594</ele>
        <time>2014-05-04T08:07:34Z</time>
      </trkpt>
      <trkpt lat="45.72694" lon="5.70865">
        <ele>337.40002441406</ele>
        <time>2014-05-04T08:08:06Z</time>
      </trkpt>
      <trkpt lat="45.72644" lon="5.70867">
        <ele>339.20001220703</ele>
        <time>2014-05-04T08:08:38Z</time>
      </trkpt>
      <trkpt lat="45.72595" lon="5.70883">
        <ele>332.09997558594</ele>
        <time>2014-05-04T08:09:10Z</time>
      </trkpt>
      <trkpt lat="45.72543" lon="5.70897">
        <ele>325.5</ele>
        <time>2014-05-04T08:09:41Z</time>
      </trkpt>
      <trkpt lat="45.72498" lon="5.70901">
        <ele>329</ele>
        <time>2014-05-04T08:10:12Z</time>
      </trkpt>
      <trkpt lat="45.72456" lon="5.70916">
        <ele>330.40002441406</ele>
        <time>2014-05-04T08:10:44Z</time>
      </trkpt>
      <trkpt lat="45.72433" lon="5.70911">
        <ele>322.59997558594</ele>
        <time>2014-05-04T08:11:14Z</time>
      </trkpt>
      <trkpt lat="45.72427" lon="5.70838">
        <ele>295.59997558594</ele>
        <time>2014-05-04T08:13:10Z</time>
      </trkpt>
      <trkpt lat="45.7241" lon="5.70773">
        <ele>266.59997558594</ele>
        <time>2014-05-04T08:13:36Z</time>
      </trkpt>
      <trkpt lat="45.72412" lon="5.70738">
        <ele>260.20001220703</ele>
        <time>2014-05-04T08:13:59Z</time>
      </trkpt>
      <trkpt lat="45.72409" lon="5.70713">
        <ele>262.70001220703</ele>
        <time>2014-05-04T08:14:22Z</time>
      </trkpt>
      <trkpt lat="45.72402" lon="5.70636">
        <ele>297.20001220703</ele>
        <time>2014-05-04T08:14:48Z</time>
      </trkpt>
      <trkpt lat="45.72403" lon="5.70597">
        <ele>282.29998779297</ele>
        <time>2014-05-04T08:15:12Z</time>
      </trkpt>
      <trkpt lat="45.72398" lon="5.7055">
        <ele>275.5</ele>
        <time>2014-05-04T08:15:36Z</time>
      </trkpt>
      <trkpt lat="45.72396" lon="5.70504">
        <ele>268.29998779297</ele>
        <time>2014-05-04T08:15:59Z</time>
      </trkpt>
      <trkpt lat="45.72395" lon="5.70463">
        <ele>259.5</ele>
        <time>2014-05-04T08:16:21Z</time>
      </trkpt>
      <trkpt lat="45.72368" lon="5.70446">
        <ele>260.09997558594</ele>
        <time>2014-05-04T08:16:44Z</time>
      </trkpt>
      <trkpt lat="45.7233" lon="5.70446">
        <ele>271.5</ele>
        <time>2014-05-04T08:17:08Z</time>
      </trkpt>
      <trkpt lat="45.72292" lon="5.70443">
        <ele>282.09997558594</ele>
        <time>2014-05-04T08:17:33Z</time>
      </trkpt>
      <trkpt lat="45.72238" lon="5.70443">
        <ele>289.59997558594</ele>
        <time>2014-05-04T08:18:05Z</time>
      </trkpt>
      <trkpt lat="45.72183" lon="5.70437">
        <ele>306.5</ele>
        <time>2014-05-04T08:18:37Z</time>
      </trkpt>
      <trkpt lat="45.7214" lon="5.70432">
        <ele>323.5</ele>
        <time>2014-05-04T08:19:03Z</time>
      </trkpt>
      <trkpt lat="45.72108" lon="5.70399">
        <ele>285.59997558594</ele>
        <time>2014-05-04T08:19:39Z</time>
      </trkpt>
      <trkpt lat="45.72086" lon="5.70328">
        <ele>307.59997558594</ele>
        <time>2014-05-04T08:20:13Z</time>
      </trkpt>
      <trkpt lat="45.72049" lon="5.70315">
        <ele>293.70001220703</ele>
        <time>2014-05-04T08:20:48Z</time>
      </trkpt>
      <trkpt lat="45.7205" lon="5.70276">
        <ele>279.5</ele>
        <time>2014-05-04T08:21:19Z</time>
      </trkpt>
      <trkpt lat="45.72045" lon="5.70233">
        <ele>269.29998779297</ele>
        <time>2014-05-04T08:21:42Z</time>
      </trkpt>
      <trkpt lat="45.72048" lon="5.70187">
        <ele>268.59997558594</ele>
        <time>2014-05-04T08:22:05Z</time>
      </trkpt>
      <trkpt lat="45.72042" lon="5.70137">
        <ele>268.09997558594</ele>
        <time>2014-05-04T08:22:29Z</time>
      </trkpt>
      <trkpt lat="45.72036" lon="5.70086">
        <ele>278</ele>
        <time>2014-05-04T08:22:51Z</time>
      </trkpt>
      <trkpt lat="45.71955" lon="5.70078">
        <ele>300.29998779297</ele>
        <time>2014-05-04T08:23:17Z</time>
      </trkpt>
      <trkpt lat="45.71812" lon="5.70097">
        <ele>268.70001220703</ele>
        <time>2014-05-04T08:23:41Z</time>
      </trkpt>
      <trkpt lat="45.71748" lon="5.70085">
        <ele>278.20001220703</ele>
        <time>2014-05-04T08:24:05Z</time>
      </trkpt>
      <trkpt lat="45.71687" lon="5.70066">
        <ele>282.5</ele>
        <time>2014-05-04T08:24:29Z</time>
      </trkpt>
      <trkpt lat="45.71581" lon="5.70071">
        <ele>280.70001220703</ele>
        <time>2014-05-04T08:24:53Z</time>
      </trkpt>
      <trkpt lat="45.71539" lon="5.70078">
        <ele>265.70001220703</ele>
        <time>2014-05-04T08:25:18Z</time>
      </trkpt>
      <trkpt lat="45.71502" lon="5.70076">
        <ele>268.70001220703</ele>
        <time>2014-05-04T08:25:41Z</time>
      </trkpt>
      <trkpt lat="45.7147" lon="5.70078">
        <ele>284.20001220703</ele>
        <time>2014-05-04T08:26:05Z</time>
      </trkpt>
      <trkpt lat="45.71469" lon="5.70114">
        <ele>298.79998779297</ele>
        <time>2014-05-04T08:26:27Z</time>
      </trkpt>
      <trkpt lat="45.71462" lon="5.70154">
        <ele>309.70001220703</ele>
        <time>2014-05-04T08:26:48Z</time>
      </trkpt>
      <trkpt lat="45.71464" lon="5.70223">
        <ele>280.29998779297</ele>
        <time>2014-05-04T08:27:13Z</time>
      </trkpt>
      <trkpt lat="45.71469" lon="5.70271">
        <ele>287.79998779297</ele>
        <time>2014-05-04T08:27:36Z</time>
      </trkpt>
      <trkpt lat="45.71392" lon="5.70288">
        <ele>302.09997558594</ele>
        <time>2014-05-04T08:28:03Z</time>
      </trkpt>
      <trkpt lat="45.71368" lon="5.70487">
        <ele>303.09997558594</ele>
        <time>2014-05-04T08:28:29Z</time>
      </trkpt>
      <trkpt lat="45.71344" lon="5.70676">
        <ele>302.5</ele>
        <time>2014-05-04T08:28:56Z</time>
      </trkpt>
      <trkpt lat="45.71319" lon="5.70765">
        <ele>266.79998779297</ele>
        <time>2014-05-04T08:29:21Z</time>
      </trkpt>
      <trkpt lat="45.71299" lon="5.70751">
        <ele>270.70001220703</ele>
        <time>2014-05-04T08:30:32Z</time>
      </trkpt>
      <trkpt lat="45.71284" lon="5.70752">
        <ele>271.59997558594</ele>
        <time>2014-05-04T08:31:41Z</time>
      </trkpt>
      <trkpt lat="45.71273" lon="5.7075">
        <ele>281.59997558594</ele>
        <time>2014-05-04T08:32:04Z</time>
      </trkpt>
      <trkpt lat="45.71246" lon="5.70757">
        <ele>259.20001220703</ele>
        <time>2014-05-04T08:32:28Z</time>
      </trkpt>
      <trkpt lat="45.71236" lon="5.70742">
        <ele>275.09997558594</ele>
        <time>2014-05-04T08:33:18Z</time>
      </trkpt>
      <trkpt lat="45.71246" lon="5.70739">
        <ele>281.5</ele>
        <time>2014-05-04T08:39:44Z</time>
      </trkpt>
      <trkpt lat="45.71245" lon="5.70755">
        <ele>266.29998779297</ele>
        <time>2014-05-04T08:41:40Z</time>
      </trkpt>
      <trkpt lat="45.71247" lon="5.70734">
        <ele>282.59997558594</ele>
        <time>2014-05-04T08:42:26Z</time>
      </trkpt>
      <trkpt lat="45.71234" lon="5.70734">
        <ele>290.29998779297</ele>
        <time>2014-05-04T08:43:15Z</time>
      </trkpt>
      <trkpt lat="45.71251" lon="5.70738">
        <ele>273.29998779297</ele>
        <time>2014-05-04T08:43:38Z</time>
      </trkpt>
      <trkpt lat="45.7125" lon="5.70752">
        <ele>269.79998779297</ele>
        <time>2014-05-04T08:44:50Z</time>
      </trkpt>
      <trkpt lat="45.71261" lon="5.70744">
        <ele>278.40002441406</ele>
        <time>2014-05-04T08:46:10Z</time>
      </trkpt>
      <trkpt lat="45.71279" lon="5.70744">
        <ele>278.70001220703</ele>
        <time>2014-05-04T08:46:33Z</time>
      </trkpt>
      <trkpt lat="45.71292" lon="5.7076">
        <ele>277.5</ele>
        <time>2014-05-04T08:46:57Z</time>
      </trkpt>
      <trkpt lat="45.71299" lon="5.70745">
        <ele>273.59997558594</ele>
        <time>2014-05-04T08:47:46Z</time>
      </trkpt>
      <trkpt lat="45.71297" lon="5.7076">
        <ele>286.09997558594</ele>
        <time>2014-05-04T08:48:10Z</time>
      </trkpt>
      <trkpt lat="45.71286" lon="5.70738">
        <ele>277.90002441406</ele>
        <time>2014-05-04T08:48:34Z</time>
      </trkpt>
      <trkpt lat="45.71298" lon="5.7076">
        <ele>269.70001220703</ele>
        <time>2014-05-04T08:48:57Z</time>
      </trkpt>
      <trkpt lat="45.7132" lon="5.70759">
        <ele>279.90002441406</ele>
        <time>2014-05-04T08:50:10Z</time>
      </trkpt>
      <trkpt lat="45.71329" lon="5.70777">
        <ele>266.79998779297</ele>
        <time>2014-05-04T08:50:34Z</time>
      </trkpt>
      <trkpt lat="45.71331" lon="5.70827">
        <ele>273.09997558594</ele>
        <time>2014-05-04T08:50:56Z</time>
      </trkpt>
      <trkpt lat="45.71334" lon="5.70877">
        <ele>278.70001220703</ele>
        <time>2014-05-04T08:51:18Z</time>
      </trkpt>
      <trkpt lat="45.71326" lon="5.70926">
        <ele>280.79998779297</ele>
        <time>2014-05-04T08:51:39Z</time>
      </trkpt>
      <trkpt lat="45.71323" lon="5.70975">
        <ele>285.09997558594</ele>
        <time>2014-05-04T08:52:01Z</time>
      </trkpt>
      <trkpt lat="45.71318" lon="5.71025">
        <ele>281</ele>
        <time>2014-05-04T08:52:23Z</time>
      </trkpt>
      <trkpt lat="45.71318" lon="5.71073">
        <ele>283.20001220703</ele>
        <time>2014-05-04T08:52:47Z</time>
      </trkpt>
      <trkpt lat="45.71287" lon="5.71106">
        <ele>278.5</ele>
        <time>2014-05-04T08:53:09Z</time>
      </trkpt>
      <trkpt lat="45.71256" lon="5.71127">
        <ele>290.09997558594</ele>
        <time>2014-05-04T08:53:31Z</time>
      </trkpt>
      <trkpt lat="45.71222" lon="5.71141">
        <ele>291.79998779297</ele>
        <time>2014-05-04T08:53:53Z</time>
      </trkpt>
      <trkpt lat="45.71204" lon="5.7118">
        <ele>286.5</ele>
        <time>2014-05-04T08:54:17Z</time>
      </trkpt>
      <trkpt lat="45.71197" lon="5.71225">
        <ele>295</ele>
        <time>2014-05-04T08:54:38Z</time>
      </trkpt>
      <trkpt lat="45.71179" lon="5.71271">
        <ele>294.40002441406</ele>
        <time>2014-05-04T08:55:04Z</time>
      </trkpt>
      <trkpt lat="45.7116" lon="5.71311">
        <ele>295.70001220703</ele>
        <time>2014-05-04T08:55:27Z</time>
      </trkpt>
      <trkpt lat="45.71138" lon="5.71362">
        <ele>286.59997558594</ele>
        <time>2014-05-04T08:55:52Z</time>
      </trkpt>
      <trkpt lat="45.71128" lon="5.71417">
        <ele>286</ele>
        <time>2014-05-04T08:56:15Z</time>
      </trkpt>
      <trkpt lat="45.71105" lon="5.71447">
        <ele>280.29998779297</ele>
        <time>2014-05-04T08:56:40Z</time>
      </trkpt>
      <trkpt lat="45.71082" lon="5.715">
        <ele>296.90002441406</ele>
        <time>2014-05-04T08:57:06Z</time>
      </trkpt>
      <trkpt lat="45.71066" lon="5.71526">
        <ele>295.70001220703</ele>
        <time>2014-05-04T08:57:27Z</time>
      </trkpt>
      <trkpt lat="45.71054" lon="5.71589">
        <ele>289.70001220703</ele>
        <time>2014-05-04T08:57:52Z</time>
      </trkpt>
      <trkpt lat="45.71052" lon="5.71637">
        <ele>293.5</ele>
        <time>2014-05-04T08:58:14Z</time>
      </trkpt>
      <trkpt lat="45.71031" lon="5.71689">
        <ele>278.90002441406</ele>
        <time>2014-05-04T08:58:38Z</time>
      </trkpt>
      <trkpt lat="45.71019" lon="5.71738">
        <ele>281.29998779297</ele>
        <time>2014-05-04T08:59:00Z</time>
      </trkpt>
      <trkpt lat="45.71004" lon="5.71785">
        <ele>278.59997558594</ele>
        <time>2014-05-04T08:59:22Z</time>
      </trkpt>
      <trkpt lat="45.70991" lon="5.71835">
        <ele>284.70001220703</ele>
        <time>2014-05-04T08:59:44Z</time>
      </trkpt>
      <trkpt lat="45.70983" lon="5.71859">
        <ele>284.09997558594</ele>
        <time>2014-05-04T09:00:06Z</time>
      </trkpt>
      <trkpt lat="45.70969" lon="5.71878">
        <ele>277</ele>
        <time>2014-05-04T09:00:27Z</time>
      </trkpt>
      <trkpt lat="45.70961" lon="5.71923">
        <ele>273.5</ele>
        <time>2014-05-04T09:00:49Z</time>
      </trkpt>
      <trkpt lat="45.70986" lon="5.71943">
        <ele>299.5</ele>
        <time>2014-05-04T09:01:15Z</time>
      </trkpt>
      <trkpt lat="45.71019" lon="5.71924">
        <ele>297.5</ele>
        <time>2014-05-04T09:01:40Z</time>
      </trkpt>
      <trkpt lat="45.71054" lon="5.71927">
        <ele>308.70001220703</ele>
        <time>2014-05-04T09:02:08Z</time>
      </trkpt>
      <trkpt lat="45.71047" lon="5.71918">
        <ele>318.20001220703</ele>
        <time>2014-05-04T09:02:38Z</time>
      </trkpt>
      <trkpt lat="45.71063" lon="5.71928">
        <ele>308.70001220703</ele>
        <time>2014-05-04T09:03:06Z</time>
      </trkpt>
      <trkpt lat="45.71104" lon="5.71926">
        <ele>307.70001220703</ele>
        <time>2014-05-04T09:03:32Z</time>
      </trkpt>
      <trkpt lat="45.71132" lon="5.71895">
        <ele>314.20001220703</ele>
        <time>2014-05-04T09:03:58Z</time>
      </trkpt>
      <trkpt lat="45.71163" lon="5.71851">
        <ele>323.20001220703</ele>
        <time>2014-05-04T09:04:27Z</time>
      </trkpt>
      <trkpt lat="45.7119" lon="5.71805">
        <ele>324.20001220703</ele>
        <time>2014-05-04T09:04:58Z</time>
      </trkpt>
      <trkpt lat="45.71225" lon="5.71816">
        <ele>339.29998779297</ele>
        <time>2014-05-04T09:05:29Z</time>
      </trkpt>
      <trkpt lat="45.71253" lon="5.71848">
        <ele>345.5</ele>
        <time>2014-05-04T09:06:05Z</time>
      </trkpt>
      <trkpt lat="45.71263" lon="5.71798">
        <ele>345</ele>
        <time>2014-05-04T09:06:39Z</time>
      </trkpt>
      <trkpt lat="45.7126" lon="5.71732">
        <ele>339.40002441406</ele>
        <time>2014-05-04T09:07:13Z</time>
      </trkpt>
      <trkpt lat="45.71267" lon="5.71682">
        <ele>330.90002441406</ele>
        <time>2014-05-04T09:07:43Z</time>
      </trkpt>
      <trkpt lat="45.71298" lon="5.71647">
        <ele>322.5</ele>
        <time>2014-05-04T09:08:14Z</time>
      </trkpt>
      <trkpt lat="45.71322" lon="5.71601">
        <ele>319</ele>
        <time>2014-05-04T09:08:41Z</time>
      </trkpt>
      <trkpt lat="45.71355" lon="5.71578">
        <ele>313</ele>
        <time>2014-05-04T09:09:08Z</time>
      </trkpt>
      <trkpt lat="45.714" lon="5.71604">
        <ele>308.29998779297</ele>
        <time>2014-05-04T09:09:35Z</time>
      </trkpt>
      <trkpt lat="45.71507" lon="5.71559">
        <ele>319.40002441406</ele>
        <time>2014-05-04T09:10:04Z</time>
      </trkpt>
      <trkpt lat="45.71532" lon="5.71537">
        <ele>331.5</ele>
        <time>2014-05-04T09:10:37Z</time>
      </trkpt>
      <trkpt lat="45.71566" lon="5.71525">
        <ele>328.79998779297</ele>
        <time>2014-05-04T09:12:05Z</time>
      </trkpt>
      <trkpt lat="45.71585" lon="5.71487">
        <ele>312.20001220703</ele>
        <time>2014-05-04T09:12:33Z</time>
      </trkpt>
      <trkpt lat="45.71625" lon="5.71467">
        <ele>304.79998779297</ele>
        <time>2014-05-04T09:13:00Z</time>
      </trkpt>
      <trkpt lat="45.71595" lon="5.7144">
        <ele>309.29998779297</ele>
        <time>2014-05-04T09:13:26Z</time>
      </trkpt>
      <trkpt lat="45.7158" lon="5.71414">
        <ele>299.09997558594</ele>
        <time>2014-05-04T09:13:52Z</time>
      </trkpt>
      <trkpt lat="45.71601" lon="5.71392">
        <ele>298.70001220703</ele>
        <time>2014-05-04T09:14:18Z</time>
      </trkpt>
      <trkpt lat="45.71602" lon="5.71373">
        <ele>287.79998779297</ele>
        <time>2014-05-04T09:14:42Z</time>
      </trkpt>
      <trkpt lat="45.71612" lon="5.7134">
        <ele>279.40002441406</ele>
        <time>2014-05-04T09:15:06Z</time>
      </trkpt>
      <trkpt lat="45.71651" lon="5.71314">
        <ele>281.79998779297</ele>
        <time>2014-05-04T09:15:31Z</time>
      </trkpt>
      <trkpt lat="45.71687" lon="5.71334">
        <ele>278.70001220703</ele>
        <time>2014-05-04T09:15:56Z</time>
      </trkpt>
      <trkpt lat="45.71724" lon="5.71354">
        <ele>275.29998779297</ele>
        <time>2014-05-04T09:16:21Z</time>
      </trkpt>
      <trkpt lat="45.71772" lon="5.71365">
        <ele>285.90002441406</ele>
        <time>2014-05-04T09:16:46Z</time>
      </trkpt>
      <trkpt lat="45.71797" lon="5.71372">
        <ele>279.79998779297</ele>
        <time>2014-05-04T09:17:10Z</time>
      </trkpt>
      <trkpt lat="45.71849" lon="5.71357">
        <ele>286.09997558594</ele>
        <time>2014-05-04T09:17:35Z</time>
      </trkpt>
      <trkpt lat="45.71884" lon="5.71351">
        <ele>285.20001220703</ele>
        <time>2014-05-04T09:18:00Z</time>
      </trkpt>
      <trkpt lat="45.71903" lon="5.71342">
        <ele>273.70001220703</ele>
        <time>2014-05-04T09:18:26Z</time>
      </trkpt>
      <trkpt lat="45.71917" lon="5.71354">
        <ele>280</ele>
        <time>2014-05-04T09:19:13Z</time>
      </trkpt>
      <trkpt lat="45.71953" lon="5.71355">
        <ele>287.59997558594</ele>
        <time>2014-05-04T09:19:38Z</time>
      </trkpt>
      <trkpt lat="45.71989" lon="5.71362">
        <ele>281.70001220703</ele>
        <time>2014-05-04T09:20:03Z</time>
      </trkpt>
      <trkpt lat="45.72013" lon="5.71329">
        <ele>287.70001220703</ele>
        <time>2014-05-04T09:20:28Z</time>
      </trkpt>
      <trkpt lat="45.72019" lon="5.71281">
        <ele>281.09997558594</ele>
        <time>2014-05-04T09:20:52Z</time>
      </trkpt>
      <trkpt lat="45.72025" lon="5.71265">
        <ele>277.90002441406</ele>
        <time>2014-05-04T09:21:17Z</time>
      </trkpt>
      <trkpt lat="45.72023" lon="5.71212">
        <ele>288</ele>
        <time>2014-05-04T09:21:42Z</time>
      </trkpt>
      <trkpt lat="45.72014" lon="5.71181">
        <ele>288</ele>
        <time>2014-05-04T09:22:06Z</time>
      </trkpt>
      <trkpt lat="45.71999" lon="5.71179">
        <ele>285.70001220703</ele>
        <time>2014-05-04T09:24:06Z</time>
      </trkpt>
      <trkpt lat="45.71987" lon="5.71175">
        <ele>293</ele>
        <time>2014-05-04T09:24:30Z</time>
      </trkpt>
      <trkpt lat="45.71979" lon="5.7117">
        <ele>286.29998779297</ele>
        <time>2014-05-04T09:24:55Z</time>
      </trkpt>
      <trkpt lat="45.71981" lon="5.71183">
        <ele>287.70001220703</ele>
        <time>2014-05-04T09:25:46Z</time>
      </trkpt>
      <trkpt lat="45.71981" lon="5.71163">
        <ele>295.79998779297</ele>
        <time>2014-05-04T09:26:37Z</time>
      </trkpt>
      <trkpt lat="45.71988" lon="5.71177">
        <ele>300</ele>
        <time>2014-05-04T09:27:22Z</time>
      </trkpt>
      <trkpt lat="45.71998" lon="5.71173">
        <ele>292.59997558594</ele>
        <time>2014-05-04T09:30:13Z</time>
      </trkpt>
      <trkpt lat="45.71983" lon="5.71163">
        <ele>287</ele>
        <time>2014-05-04T09:30:37Z</time>
      </trkpt>
      <trkpt lat="45.71978" lon="5.71177">
        <ele>294.59997558594</ele>
        <time>2014-05-04T09:31:03Z</time>
      </trkpt>
      <trkpt lat="45.71987" lon="5.71182">
        <ele>278.40002441406</ele>
        <time>2014-05-04T09:31:27Z</time>
      </trkpt>
      <trkpt lat="45.72028" lon="5.7118">
        <ele>287.5</ele>
        <time>2014-05-04T09:34:13Z</time>
      </trkpt>
      <trkpt lat="45.72077" lon="5.71192">
        <ele>289.40002441406</ele>
        <time>2014-05-04T09:34:39Z</time>
      </trkpt>
      <trkpt lat="45.72115" lon="5.71194">
        <ele>285.79998779297</ele>
        <time>2014-05-04T09:35:04Z</time>
      </trkpt>
      <trkpt lat="45.72141" lon="5.71207">
        <ele>280.09997558594</ele>
        <time>2014-05-04T09:35:29Z</time>
      </trkpt>
      <trkpt lat="45.72176" lon="5.71174">
        <ele>282.29998779297</ele>
        <time>2014-05-04T09:35:50Z</time>
      </trkpt>
      <trkpt lat="45.72214" lon="5.71169">
        <ele>285.29998779297</ele>
        <time>2014-05-04T09:36:15Z</time>
      </trkpt>
      <trkpt lat="45.72252" lon="5.71177">
        <ele>286.70001220703</ele>
        <time>2014-05-04T09:36:40Z</time>
      </trkpt>
      <trkpt lat="45.72291" lon="5.71193">
        <ele>280.20001220703</ele>
        <time>2014-05-04T09:37:05Z</time>
      </trkpt>
      <trkpt lat="45.72291" lon="5.71244">
        <ele>282.09997558594</ele>
        <time>2014-05-04T09:37:30Z</time>
      </trkpt>
      <trkpt lat="45.72274" lon="5.71282">
        <ele>272.09997558594</ele>
        <time>2014-05-04T09:37:54Z</time>
      </trkpt>
      <trkpt lat="45.72237" lon="5.71295">
        <ele>287.79998779297</ele>
        <time>2014-05-04T09:38:18Z</time>
      </trkpt>
      <trkpt lat="45.72211" lon="5.71325">
        <ele>282.20001220703</ele>
        <time>2014-05-04T09:38:41Z</time>
      </trkpt>
      <trkpt lat="45.72204" lon="5.71377">
        <ele>285.5</ele>
        <time>2014-05-04T09:39:06Z</time>
      </trkpt>
      <trkpt lat="45.72217" lon="5.71418">
        <ele>285.70001220703</ele>
        <time>2014-05-04T09:39:31Z</time>
      </trkpt>
      <trkpt lat="45.72207" lon="5.71469">
        <ele>284.5</ele>
        <time>2014-05-04T09:39:56Z</time>
      </trkpt>
      <trkpt lat="45.72212" lon="5.71495">
        <ele>279.29998779297</ele>
        <time>2014-05-04T09:40:19Z</time>
      </trkpt>
      <trkpt lat="45.72242" lon="5.71535">
        <ele>281.09997558594</ele>
        <time>2014-05-04T09:40:44Z</time>
      </trkpt>
      <trkpt lat="45.72277" lon="5.71565">
        <ele>287.79998779297</ele>
        <time>2014-05-04T09:41:09Z</time>
      </trkpt>
      <trkpt lat="45.72311" lon="5.716">
        <ele>287.59997558594</ele>
        <time>2014-05-04T09:41:34Z</time>
      </trkpt>
      <trkpt lat="45.7232" lon="5.7164">
        <ele>279.40002441406</ele>
        <time>2014-05-04T09:41:58Z</time>
      </trkpt>
      <trkpt lat="45.7235" lon="5.71684">
        <ele>293.09997558594</ele>
        <time>2014-05-04T09:42:24Z</time>
      </trkpt>
      <trkpt lat="45.72405" lon="5.71718">
        <ele>279</ele>
        <time>2014-05-04T09:42:48Z</time>
      </trkpt>
      <trkpt lat="45.72458" lon="5.71717">
        <ele>277.5</ele>
        <time>2014-05-04T09:43:11Z</time>
      </trkpt>
      <trkpt lat="45.72477" lon="5.71734">
        <ele>307.59997558594</ele>
        <time>2014-05-04T09:43:37Z</time>
      </trkpt>
      <trkpt lat="45.72513" lon="5.71779">
        <ele>295.5</ele>
        <time>2014-05-04T09:44:02Z</time>
      </trkpt>
      <trkpt lat="45.72544" lon="5.71802">
        <ele>289.20001220703</ele>
        <time>2014-05-04T09:44:25Z</time>
      </trkpt>
      <trkpt lat="45.72582" lon="5.71825">
        <ele>290.09997558594</ele>
        <time>2014-05-04T09:44:51Z</time>
      </trkpt>
      <trkpt lat="45.72607" lon="5.71845">
        <ele>308.09997558594</ele>
        <time>2014-05-04T09:45:18Z</time>
      </trkpt>
      <trkpt lat="45.72635" lon="5.71857">
        <ele>308.5</ele>
        <time>2014-05-04T09:45:44Z</time>
      </trkpt>
      <trkpt lat="45.7268" lon="5.71884">
        <ele>310.70001220703</ele>
        <time>2014-05-04T09:46:10Z</time>
      </trkpt>
      <trkpt lat="45.72729" lon="5.7189">
        <ele>295.5</ele>
        <time>2014-05-04T09:47:00Z</time>
      </trkpt>
      <trkpt lat="45.72768" lon="5.71906">
        <ele>304.59997558594</ele>
        <time>2014-05-04T09:47:27Z</time>
      </trkpt>
      <trkpt lat="45.72807" lon="5.71905">
        <ele>306.40002441406</ele>
        <time>2014-05-04T09:47:53Z</time>
      </trkpt>
      <trkpt lat="45.72848" lon="5.7191">
        <ele>289.90002441406</ele>
        <time>2014-05-04T09:48:18Z</time>
      </trkpt>
      <trkpt lat="45.72887" lon="5.71927">
        <ele>295.29998779297</ele>
        <time>2014-05-04T09:48:44Z</time>
      </trkpt>
      <trkpt lat="45.72927" lon="5.71944">
        <ele>293.79998779297</ele>
        <time>2014-05-04T09:49:09Z</time>
      </trkpt>
      <trkpt lat="45.72975" lon="5.71944">
        <ele>303.70001220703</ele>
        <time>2014-05-04T09:49:35Z</time>
      </trkpt>
      <trkpt lat="45.73011" lon="5.71953">
        <ele>295.59997558594</ele>
        <time>2014-05-04T09:50:00Z</time>
      </trkpt>
      <trkpt lat="45.73039" lon="5.7196">
        <ele>297.29998779297</ele>
        <time>2014-05-04T09:50:22Z</time>
      </trkpt>
      <trkpt lat="45.73079" lon="5.71943">
        <ele>290.40002441406</ele>
        <time>2014-05-04T09:50:46Z</time>
      </trkpt>
      <trkpt lat="45.7309" lon="5.71896">
        <ele>292.20001220703</ele>
        <time>2014-05-04T09:51:09Z</time>
      </trkpt>
      <trkpt lat="45.73099" lon="5.7184">
        <ele>290</ele>
        <time>2014-05-04T09:51:34Z</time>
      </trkpt>
      <trkpt lat="45.73101" lon="5.71783">
        <ele>305.90002441406</ele>
        <time>2014-05-04T09:52:01Z</time>
      </trkpt>
      <trkpt lat="45.73133" lon="5.71777">
        <ele>279.5</ele>
        <time>2014-05-04T09:52:25Z</time>
      </trkpt>
      <trkpt lat="45.73178" lon="5.71763">
        <ele>273.29998779297</ele>
        <time>2014-05-04T09:52:49Z</time>
      </trkpt>
      <trkpt lat="45.73192" lon="5.71766">
        <ele>278.59997558594</ele>
        <time>2014-05-04T09:53:12Z</time>
      </trkpt>
      <trkpt lat="45.73207" lon="5.71764">
        <ele>286.90002441406</ele>
        <time>2014-05-04T09:53:37Z</time>
      </trkpt>
      <trkpt lat="45.73215" lon="5.71754">
        <ele>286.29998779297</ele>
        <time>2014-05-04T09:57:01Z</time>
      </trkpt>
      <trkpt lat="45.73205" lon="5.71759">
        <ele>271.79998779297</ele>
        <time>2014-05-04T09:57:46Z</time>
      </trkpt>
      <trkpt lat="45.73271" lon="5.71764">
        <ele>277.09997558594</ele>
        <time>2014-05-04T09:58:10Z</time>
      </trkpt>
      <trkpt lat="45.73421" lon="5.71802">
        <ele>287</ele>
        <time>2014-05-04T09:58:35Z</time>
      </trkpt>
      <trkpt lat="45.73541" lon="5.71833">
        <ele>295</ele>
        <time>2014-05-04T09:59:01Z</time>
      </trkpt>
      <trkpt lat="45.73535" lon="5.7185">
        <ele>294.09997558594</ele>
        <time>2014-05-04T09:59:27Z</time>
      </trkpt>
      <trkpt lat="45.73526" lon="5.719">
        <ele>283.20001220703</ele>
        <time>2014-05-04T09:59:52Z</time>
      </trkpt>
      <trkpt lat="45.73474" lon="5.71967">
        <ele>287.40002441406</ele>
        <time>2014-05-04T10:00:17Z</time>
      </trkpt>
      <trkpt lat="45.73434" lon="5.72057">
        <ele>285.79998779297</ele>
        <time>2014-05-04T10:00:42Z</time>
      </trkpt>
      <trkpt lat="45.73459" lon="5.72075">
        <ele>289.79998779297</ele>
        <time>2014-05-04T10:01:07Z</time>
      </trkpt>
      <trkpt lat="45.73485" lon="5.72107">
        <ele>293.90002441406</ele>
        <time>2014-05-04T10:01:30Z</time>
      </trkpt>
      <trkpt lat="45.7352" lon="5.72125">
        <ele>297.79998779297</ele>
        <time>2014-05-04T10:01:51Z</time>
      </trkpt>
      <trkpt lat="45.73551" lon="5.72132">
        <ele>297.40002441406</ele>
        <time>2014-05-04T10:02:13Z</time>
      </trkpt>
      <trkpt lat="45.73586" lon="5.72134">
        <ele>292.90002441406</ele>
        <time>2014-05-04T10:02:35Z</time>
      </trkpt>
      <trkpt lat="45.73626" lon="5.72141">
        <ele>286.79998779297</ele>
        <time>2014-05-04T10:02:59Z</time>
      </trkpt>
      <trkpt lat="45.73682" lon="5.72144">
        <ele>290.79998779297</ele>
        <time>2014-05-04T10:03:22Z</time>
      </trkpt>
      <trkpt lat="45.7371" lon="5.7213">
        <ele>310.29998779297</ele>
        <time>2014-05-04T10:03:44Z</time>
      </trkpt>
      <trkpt lat="45.7376" lon="5.72135">
        <ele>310.90002441406</ele>
        <time>2014-05-04T10:04:10Z</time>
      </trkpt>
      <trkpt lat="45.73826" lon="5.7216">
        <ele>310.5</ele>
        <time>2014-05-04T10:04:37Z</time>
      </trkpt>
      <trkpt lat="45.73853" lon="5.72185">
        <ele>307.29998779297</ele>
        <time>2014-05-04T10:04:58Z</time>
      </trkpt>
      <trkpt lat="45.73877" lon="5.72203">
        <ele>311.5</ele>
        <time>2014-05-04T10:05:22Z</time>
      </trkpt>
      <trkpt lat="45.73921" lon="5.72204">
        <ele>312.09997558594</ele>
        <time>2014-05-04T10:05:46Z</time>
      </trkpt>
      <trkpt lat="45.73972" lon="5.72187">
        <ele>306.90002441406</ele>
        <time>2014-05-04T10:06:12Z</time>
      </trkpt>
      <trkpt lat="45.74023" lon="5.72175">
        <ele>305.59997558594</ele>
        <time>2014-05-04T10:06:37Z</time>
      </trkpt>
      <trkpt lat="45.74061" lon="5.72197">
        <ele>304.70001220703</ele>
        <time>2014-05-04T10:07:00Z</time>
      </trkpt>
      <trkpt lat="45.74108" lon="5.72191">
        <ele>305.5</ele>
        <time>2014-05-04T10:07:27Z</time>
      </trkpt>
      <trkpt lat="45.74178" lon="5.72183">
        <ele>377.70001220703</ele>
        <time>2014-05-04T10:08:01Z</time>
      </trkpt>
      <trkpt lat="45.74193" lon="5.7218">
        <ele>367.29998779297</ele>
        <time>2014-05-04T10:08:21Z</time>
      </trkpt>
      <trkpt lat="45.74229" lon="5.72166">
        <ele>362.79998779297</ele>
        <time>2014-05-04T10:08:42Z</time>
      </trkpt>
      <trkpt lat="45.74278" lon="5.72152">
        <ele>361.20001220703</ele>
        <time>2014-05-04T10:09:07Z</time>
      </trkpt>
      <trkpt lat="45.74327" lon="5.72158">
        <ele>356.40002441406</ele>
        <time>2014-05-04T10:09:30Z</time>
      </trkpt>
      <trkpt lat="45.7438" lon="5.72159">
        <ele>380.70001220703</ele>
        <time>2014-05-04T10:09:53Z</time>
      </trkpt>
      <trkpt lat="45.74411" lon="5.72132">
        <ele>390.20001220703</ele>
        <time>2014-05-04T10:10:20Z</time>
      </trkpt>
      <trkpt lat="45.74422" lon="5.72084">
        <ele>399.09997558594</ele>
        <time>2014-05-04T10:10:43Z</time>
      </trkpt>
      <trkpt lat="45.74438" lon="5.7202">
        <ele>400.90002441406</ele>
        <time>2014-05-04T10:11:06Z</time>
      </trkpt>
      <trkpt lat="45.74445" lon="5.7197">
        <ele>376.5</ele>
        <time>2014-05-04T10:11:30Z</time>
      </trkpt>
      <trkpt lat="45.7445" lon="5.71863">
        <ele>325.09997558594</ele>
        <time>2014-05-04T10:12:01Z</time>
      </trkpt>
      <trkpt lat="45.74474" lon="5.71788">
        <ele>323.20001220703</ele>
        <time>2014-05-04T10:12:30Z</time>
      </trkpt>
      <trkpt lat="45.74483" lon="5.71721">
        <ele>334.79998779297</ele>
        <time>2014-05-04T10:13:01Z</time>
      </trkpt>
      <trkpt lat="45.74512" lon="5.71713">
        <ele>312</ele>
        <time>2014-05-04T10:13:29Z</time>
      </trkpt>
      <trkpt lat="45.7463" lon="5.71802">
        <ele>311.70001220703</ele>
        <time>2014-05-04T10:13:57Z</time>
      </trkpt>
      <trkpt lat="45.74757" lon="5.71842">
        <ele>326</ele>
        <time>2014-05-04T10:14:28Z</time>
      </trkpt>
      <trkpt lat="45.74793" lon="5.71818">
        <ele>336.5</ele>
        <time>2014-05-04T10:14:53Z</time>
      </trkpt>
      <trkpt lat="45.7482" lon="5.71768">
        <ele>332.29998779297</ele>
        <time>2014-05-04T10:15:16Z</time>
      </trkpt>
      <trkpt lat="45.74863" lon="5.71752">
        <ele>339.40002441406</ele>
        <time>2014-05-04T10:15:46Z</time>
      </trkpt>
      <trkpt lat="45.74874" lon="5.71708">
        <ele>345.40002441406</ele>
        <time>2014-05-04T10:16:13Z</time>
      </trkpt>
      <trkpt lat="45.74919" lon="5.71703">
        <ele>327.59997558594</ele>
        <time>2014-05-04T10:16:43Z</time>
      </trkpt>
      <trkpt lat="45.74968" lon="5.71732">
        <ele>323.40002441406</ele>
        <time>2014-05-04T10:17:12Z</time>
      </trkpt>
      <trkpt lat="45.75012" lon="5.71764">
        <ele>322.59997558594</ele>
        <time>2014-05-04T10:17:41Z</time>
      </trkpt>
      <trkpt lat="45.75053" lon="5.71816">
        <ele>323.79998779297</ele>
        <time>2014-05-04T10:18:11Z</time>
      </trkpt>
      <trkpt lat="45.75069" lon="5.7187">
        <ele>376.20001220703</ele>
        <time>2014-05-04T10:18:35Z</time>
      </trkpt>
      <trkpt lat="45.75123" lon="5.71894">
        <ele>316.59997558594</ele>
        <time>2014-05-04T10:19:04Z</time>
      </trkpt>
      <trkpt lat="45.75164" lon="5.7194">
        <ele>319.20001220703</ele>
        <time>2014-05-04T10:19:33Z</time>
      </trkpt>
      <trkpt lat="45.75208" lon="5.71959">
        <ele>313.29998779297</ele>
        <time>2014-05-04T10:20:01Z</time>
      </trkpt>
      <trkpt lat="45.75244" lon="5.7198">
        <ele>314.59997558594</ele>
        <time>2014-05-04T10:20:28Z</time>
      </trkpt>
      <trkpt lat="45.75283" lon="5.72017">
        <ele>309.29998779297</ele>
        <time>2014-05-04T10:20:55Z</time>
      </trkpt>
      <trkpt lat="45.75325" lon="5.7205">
        <ele>311.40002441406</ele>
        <time>2014-05-04T10:21:23Z</time>
      </trkpt>
      <trkpt lat="45.75364" lon="5.72099">
        <ele>303.20001220703</ele>
        <time>2014-05-04T10:21:49Z</time>
      </trkpt>
      <trkpt lat="45.7541" lon="5.72144">
        <ele>301.29998779297</ele>
        <time>2014-05-04T10:22:16Z</time>
      </trkpt>
      <trkpt lat="45.75429" lon="5.72204">
        <ele>291.90002441406</ele>
        <time>2014-05-04T10:22:42Z</time>
      </trkpt>
      <trkpt lat="45.75466" lon="5.72238">
        <ele>297.20001220703</ele>
        <time>2014-05-04T10:23:08Z</time>
      </trkpt>
      <trkpt lat="45.7551" lon="5.7229">
        <ele>285.90002441406</ele>
        <time>2014-05-04T10:23:33Z</time>
      </trkpt>
      <trkpt lat="45.75576" lon="5.72324">
        <ele>290.59997558594</ele>
        <time>2014-05-04T10:23:58Z</time>
      </trkpt>
      <trkpt lat="45.75612" lon="5.72366">
        <ele>293.59997558594</ele>
        <time>2014-05-04T10:24:23Z</time>
      </trkpt>
      <trkpt lat="45.75648" lon="5.72397">
        <ele>292.29998779297</ele>
        <time>2014-05-04T10:24:48Z</time>
      </trkpt>
      <trkpt lat="45.75683" lon="5.72449">
        <ele>301.5</ele>
        <time>2014-05-04T10:25:15Z</time>
      </trkpt>
      <trkpt lat="45.75715" lon="5.72478">
        <ele>300</ele>
        <time>2014-05-04T10:25:40Z</time>
      </trkpt>
      <trkpt lat="45.75735" lon="5.72438">
        <ele>301.20001220703</ele>
        <time>2014-05-04T10:26:26Z</time>
      </trkpt>
      <trkpt lat="45.7572" lon="5.72407">
        <ele>308.59997558594</ele>
        <time>2014-05-04T10:26:49Z</time>
      </trkpt>
      <trkpt lat="45.75703" lon="5.72371">
        <ele>300.40002441406</ele>
        <time>2014-05-04T10:27:11Z</time>
      </trkpt>
      <trkpt lat="45.75697" lon="5.72327">
        <ele>295.20001220703</ele>
        <time>2014-05-04T10:27:34Z</time>
      </trkpt>
      <trkpt lat="45.75677" lon="5.72295">
        <ele>300</ele>
        <time>2014-05-04T10:27:56Z</time>
      </trkpt>
      <trkpt lat="45.757" lon="5.72226">
        <ele>306.40002441406</ele>
        <time>2014-05-04T10:28:23Z</time>
      </trkpt>
      <trkpt lat="45.75782" lon="5.72119">
        <ele>314</ele>
        <time>2014-05-04T10:28:47Z</time>
      </trkpt>
      <trkpt lat="45.75795" lon="5.72068">
        <ele>307.29998779297</ele>
        <time>2014-05-04T10:29:11Z</time>
      </trkpt>
      <trkpt lat="45.75788" lon="5.72013">
        <ele>299.90002441406</ele>
        <time>2014-05-04T10:29:34Z</time>
      </trkpt>
      <trkpt lat="45.75781" lon="5.71955">
        <ele>292.70001220703</ele>
        <time>2014-05-04T10:29:57Z</time>
      </trkpt>
      <trkpt lat="45.75785" lon="5.71901">
        <ele>300.59997558594</ele>
        <time>2014-05-04T10:30:18Z</time>
      </trkpt>
      <trkpt lat="45.75781" lon="5.71841">
        <ele>308.79998779297</ele>
        <time>2014-05-04T10:30:41Z</time>
      </trkpt>
      <trkpt lat="45.75779" lon="5.71794">
        <ele>291.90002441406</ele>
        <time>2014-05-04T10:31:06Z</time>
      </trkpt>
      <trkpt lat="45.75789" lon="5.71761">
        <ele>285.20001220703</ele>
        <time>2014-05-04T10:31:27Z</time>
      </trkpt>
      <trkpt lat="45.75796" lon="5.71742">
        <ele>282.40002441406</ele>
        <time>2014-05-04T10:31:52Z</time>
      </trkpt>
      <trkpt lat="45.75831" lon="5.71835">
        <ele>283.90002441406</ele>
        <time>2014-05-04T10:32:17Z</time>
      </trkpt>
      <trkpt lat="45.75916" lon="5.71988">
        <ele>286.09997558594</ele>
        <time>2014-05-04T10:32:42Z</time>
      </trkpt>
      <trkpt lat="45.75991" lon="5.7217">
        <ele>284.20001220703</ele>
        <time>2014-05-04T10:33:07Z</time>
      </trkpt>
      <trkpt lat="45.76033" lon="5.7234">
        <ele>286.59997558594</ele>
        <time>2014-05-04T10:33:32Z</time>
      </trkpt>
      <trkpt lat="45.76034" lon="5.72264">
        <ele>286.70001220703</ele>
        <time>2014-05-04T10:33:57Z</time>
      </trkpt>
      <trkpt lat="45.76026" lon="5.72213">
        <ele>287.29998779297</ele>
        <time>2014-05-04T10:34:20Z</time>
      </trkpt>
      <trkpt lat="45.76012" lon="5.72166">
        <ele>291.5</ele>
        <time>2014-05-04T10:34:42Z</time>
      </trkpt>
      <trkpt lat="45.75997" lon="5.7212">
        <ele>283.59997558594</ele>
        <time>2014-05-04T10:35:05Z</time>
      </trkpt>
      <trkpt lat="45.7598" lon="5.72071">
        <ele>289.29998779297</ele>
        <time>2014-05-04T10:35:28Z</time>
      </trkpt>
      <trkpt lat="45.75957" lon="5.72022">
        <ele>286.79998779297</ele>
        <time>2014-05-04T10:35:51Z</time>
      </trkpt>
      <trkpt lat="45.75935" lon="5.71974">
        <ele>287.79998779297</ele>
        <time>2014-05-04T10:36:15Z</time>
      </trkpt>
      <trkpt lat="45.75907" lon="5.71918">
        <ele>279.90002441406</ele>
        <time>2014-05-04T10:36:39Z</time>
      </trkpt>
      <trkpt lat="45.75887" lon="5.7187">
        <ele>290.29998779297</ele>
        <time>2014-05-04T10:37:02Z</time>
      </trkpt>
      <trkpt lat="45.75863" lon="5.71818">
        <ele>283.40002441406</ele>
        <time>2014-05-04T10:37:25Z</time>
      </trkpt>
      <trkpt lat="45.75841" lon="5.71764">
        <ele>284.70001220703</ele>
        <time>2014-05-04T10:37:46Z</time>
      </trkpt>
      <trkpt lat="45.75819" lon="5.71722">
        <ele>280.29998779297</ele>
        <time>2014-05-04T10:38:09Z</time>
      </trkpt>
      <trkpt lat="45.75797" lon="5.71688">
        <ele>291.70001220703</ele>
        <time>2014-05-04T10:38:31Z</time>
      </trkpt>
      <trkpt lat="45.75773" lon="5.71643">
        <ele>295.90002441406</ele>
        <time>2014-05-04T10:38:54Z</time>
      </trkpt>
      <trkpt lat="45.7572" lon="5.71544">
        <ele>293.40002441406</ele>
        <time>2014-05-04T10:39:17Z</time>
      </trkpt>
      <trkpt lat="45.75663" lon="5.71416">
        <ele>284.70001220703</ele>
        <time>2014-05-04T10:39:39Z</time>
      </trkpt>
      <trkpt lat="45.75642" lon="5.71364">
        <ele>286.59997558594</ele>
        <time>2014-05-04T10:40:02Z</time>
      </trkpt>
      <trkpt lat="45.75618" lon="5.71317">
        <ele>290.5</ele>
        <time>2014-05-04T10:40:27Z</time>
      </trkpt>
      <trkpt lat="45.75598" lon="5.71258">
        <ele>289.09997558594</ele>
        <time>2014-05-04T10:40:50Z</time>
      </trkpt>
      <trkpt lat="45.75592" lon="5.71197">
        <ele>312.90002441406</ele>
        <time>2014-05-04T10:41:12Z</time>
      </trkpt>
      <trkpt lat="45.75535" lon="5.71102">
        <ele>291.29998779297</ele>
        <time>2014-05-04T10:41:36Z</time>
      </trkpt>
      <trkpt lat="45.75473" lon="5.70968">
        <ele>291.20001220703</ele>
        <time>2014-05-04T10:41:59Z</time>
      </trkpt>
      <trkpt lat="45.7545" lon="5.70895">
        <ele>289.90002441406</ele>
        <time>2014-05-04T10:42:23Z</time>
      </trkpt>
      <trkpt lat="45.75423" lon="5.70854">
        <ele>286.5</ele>
        <time>2014-05-04T10:42:46Z</time>
      </trkpt>
      <trkpt lat="45.75398" lon="5.70829">
        <ele>286.20001220703</ele>
        <time>2014-05-04T10:43:08Z</time>
      </trkpt>
      <trkpt lat="45.75376" lon="5.70788">
        <ele>285.5</ele>
        <time>2014-05-04T10:43:32Z</time>
      </trkpt>
      <trkpt lat="45.75334" lon="5.70748">
        <ele>287.40002441406</ele>
        <time>2014-05-04T10:43:57Z</time>
      </trkpt>
      <trkpt lat="45.75296" lon="5.70723">
        <ele>297.40002441406</ele>
        <time>2014-05-04T10:44:22Z</time>
      </trkpt>
      <trkpt lat="45.75234" lon="5.70673">
        <ele>290.90002441406</ele>
        <time>2014-05-04T10:44:48Z</time>
      </trkpt>
      <trkpt lat="45.75115" lon="5.70642">
        <ele>298.70001220703</ele>
        <time>2014-05-04T10:45:12Z</time>
      </trkpt>
      <trkpt lat="45.74969" lon="5.70638">
        <ele>284.40002441406</ele>
        <time>2014-05-04T10:45:37Z</time>
      </trkpt>
      <trkpt lat="45.7482" lon="5.70645">
        <ele>284.70001220703</ele>
        <time>2014-05-04T10:46:02Z</time>
      </trkpt>
      <trkpt lat="45.7467" lon="5.7066">
        <ele>289</ele>
        <time>2014-05-04T10:46:26Z</time>
      </trkpt>
      <trkpt lat="45.7457" lon="5.70648">
        <ele>281.90002441406</ele>
        <time>2014-05-04T10:46:49Z</time>
      </trkpt>
      <trkpt lat="45.74481" lon="5.70656">
        <ele>285.09997558594</ele>
        <time>2014-05-04T10:47:14Z</time>
      </trkpt>
      <trkpt lat="45.74312" lon="5.70677">
        <ele>269.90002441406</ele>
        <time>2014-05-04T10:47:38Z</time>
      </trkpt>
      <trkpt lat="45.74205" lon="5.70706">
        <ele>290.5</ele>
        <time>2014-05-04T10:48:02Z</time>
      </trkpt>
      <trkpt lat="45.74172" lon="5.70697">
        <ele>288</ele>
        <time>2014-05-04T10:48:27Z</time>
      </trkpt>
      <trkpt lat="45.74124" lon="5.707">
        <ele>289.90002441406</ele>
        <time>2014-05-04T10:48:52Z</time>
      </trkpt>
      <trkpt lat="45.74083" lon="5.70699">
        <ele>289.79998779297</ele>
        <time>2014-05-04T10:49:17Z</time>
      </trkpt>
      <trkpt lat="45.74034" lon="5.70719">
        <ele>295</ele>
        <time>2014-05-04T10:49:43Z</time>
      </trkpt>
      <trkpt lat="45.7399" lon="5.70736">
        <ele>298.5</ele>
        <time>2014-05-04T10:50:08Z</time>
      </trkpt>
      <trkpt lat="45.73944" lon="5.70751">
        <ele>296.5</ele>
        <time>2014-05-04T10:50:34Z</time>
      </trkpt>
      <trkpt lat="45.73915" lon="5.70745">
        <ele>284.79998779297</ele>
        <time>2014-05-04T10:50:59Z</time>
      </trkpt>
      <trkpt lat="45.73872" lon="5.7075">
        <ele>280.70001220703</ele>
        <time>2014-05-04T10:51:23Z</time>
      </trkpt>
      <trkpt lat="45.73847" lon="5.70749">
        <ele>288.90002441406</ele>
        <time>2014-05-04T10:51:48Z</time>
      </trkpt>
      <trkpt lat="45.73806" lon="5.70759">
        <ele>286.29998779297</ele>
        <time>2014-05-04T10:52:13Z</time>
      </trkpt>
      <trkpt lat="45.73761" lon="5.70747">
        <ele>285.29998779297</ele>
        <time>2014-05-04T10:52:38Z</time>
      </trkpt>
      <trkpt lat="45.73725" lon="5.70729">
        <ele>283.79998779297</ele>
        <time>2014-05-04T10:53:00Z</time>
      </trkpt>
      <trkpt lat="45.73711" lon="5.70688">
        <ele>289.90002441406</ele>
        <time>2014-05-04T10:53:22Z</time>
      </trkpt>
      <trkpt lat="45.73714" lon="5.70645">
        <ele>283.5</ele>
        <time>2014-05-04T10:53:43Z</time>
      </trkpt>
      <trkpt lat="45.7373" lon="5.7059">
        <ele>278.40002441406</ele>
        <time>2014-05-04T10:54:04Z</time>
      </trkpt>
      <trkpt lat="45.73716" lon="5.70567">
        <ele>283.20001220703</ele>
        <time>2014-05-04T10:54:29Z</time>
      </trkpt>
      <trkpt lat="45.73683" lon="5.70573">
        <ele>285.59997558594</ele>
        <time>2014-05-04T10:54:54Z</time>
      </trkpt>
      <trkpt lat="45.73644" lon="5.70594">
        <ele>293.59997558594</ele>
        <time>2014-05-04T10:55:20Z</time>
      </trkpt>
      <trkpt lat="45.73607" lon="5.70567">
        <ele>306.70001220703</ele>
        <time>2014-05-04T10:55:46Z</time>
      </trkpt>
      <trkpt lat="45.73554" lon="5.70508">
        <ele>313.5</ele>
        <time>2014-05-04T10:56:15Z</time>
      </trkpt>
      <trkpt lat="45.73524" lon="5.70497">
        <ele>303.59997558594</ele>
        <time>2014-05-04T10:56:38Z</time>
      </trkpt>
      <trkpt lat="45.73485" lon="5.70479">
        <ele>301.70001220703</ele>
        <time>2014-05-04T10:57:05Z</time>
      </trkpt>
      <trkpt lat="45.73447" lon="5.70475">
        <ele>281.20001220703</ele>
        <time>2014-05-04T10:57:29Z</time>
      </trkpt>
      <trkpt lat="45.73409" lon="5.70478">
        <ele>280.79998779297</ele>
        <time>2014-05-04T10:57:51Z</time>
      </trkpt>
      <trkpt lat="45.73376" lon="5.70464">
        <ele>299</ele>
        <time>2014-05-04T10:58:16Z</time>
      </trkpt>
      <trkpt lat="45.73335" lon="5.70438">
        <ele>287.70001220703</ele>
        <time>2014-05-04T10:58:41Z</time>
      </trkpt>
      <trkpt lat="45.73293" lon="5.70434">
        <ele>288</ele>
        <time>2014-05-04T10:59:05Z</time>
      </trkpt>
      <trkpt lat="45.73249" lon="5.70445">
        <ele>284.59997558594</ele>
        <time>2014-05-04T10:59:30Z</time>
      </trkpt>
      <trkpt lat="45.73209" lon="5.70451">
        <ele>284</ele>
        <time>2014-05-04T10:59:54Z</time>
      </trkpt>
      <trkpt lat="45.73171" lon="5.70477">
        <ele>295.90002441406</ele>
        <time>2014-05-04T11:00:19Z</time>
      </trkpt>
      <trkpt lat="45.73157" lon="5.70508">
        <ele>290.59997558594</ele>
        <time>2014-05-04T11:00:44Z</time>
      </trkpt>
      <trkpt lat="45.73128" lon="5.70505">
        <ele>292.5</ele>
        <time>2014-05-04T11:02:21Z</time>
      </trkpt>
      <trkpt lat="45.73105" lon="5.70487">
        <ele>295.20001220703</ele>
        <time>2014-05-04T11:02:47Z</time>
      </trkpt>
      <trkpt lat="45.73084" lon="5.7045">
        <ele>283.40002441406</ele>
        <time>2014-05-04T11:03:11Z</time>
      </trkpt>
      <trkpt lat="45.73055" lon="5.70436">
        <ele>286.5</ele>
        <time>2014-05-04T11:03:35Z</time>
      </trkpt>
      <trkpt lat="45.73044" lon="5.70432">
        <ele>289.90002441406</ele>
        <time>2014-05-04T11:04:01Z</time>
      </trkpt>
      <trkpt lat="45.73055" lon="5.70414">
        <ele>257.79998779297</ele>
        <time>2014-05-04T11:04:48Z</time>
      </trkpt>
      <trkpt lat="45.73046" lon="5.70426">
        <ele>285.79998779297</ele>
        <time>2014-05-04T11:05:57Z</time>
      </trkpt>
      <trkpt lat="45.73027" lon="5.70423">
        <ele>286</ele>
        <time>2014-05-04T11:06:21Z</time>
      </trkpt>
      <trkpt lat="45.73018" lon="5.70419">
        <ele>277.29998779297</ele>
        <time>2014-05-04T11:06:44Z</time>
      </trkpt>
      <trkpt lat="45.73022" lon="5.70407">
        <ele>284.29998779297</ele>
        <time>2014-05-04T11:09:31Z</time>
      </trkpt>
      <trkpt lat="45.73019" lon="5.70386">
        <ele>256.09997558594</ele>
        <time>2014-05-04T11:10:42Z</time>
      </trkpt>
      <trkpt lat="45.73012" lon="5.70408">
        <ele>274.59997558594</ele>
        <time>2014-05-04T11:11:05Z</time>
      </trkpt>
    </trkseg>
  </trk>
</gpx>